sensor_id;sensor_type;location;lat;lon;timestamp;P1;durP1;ratioP1;P2;durP2;ratioP2
18338;SDS011;9295;44.484;11.240;2023-07-29T00:00:25;7.57;;;4.20;;
18338;SDS011;9295;44.484;11.240;2023-07-29T00:02:54;9.90;;;4.30;;
18338;SDS011;9295;44.484;11.240;2023-07-29T00:05:23;7.57;;;4.37;;
18338;SDS011;9295;44.484;11.240;2023-07-29T00:07:52;10.07;;;4.40;;
18338;SDS011;9295;44.484;11.240;2023-07-29T00:10:20;7.50;;;4.30;;
18338;SDS011;9295;44.484;11.240;2023-07-29T00:12:49;9.67;;;4.10;;
18338;SDS011;9295;44.484;11.240;2023-07-29T00:15:19;6.87;;;4.40;;
18338;SDS011;9295;44.484;11.240;2023-07-29T00:17:48;8.13;;;4.50;;
18338;SDS011;9295;44.484;11.240;2023-07-29T00:20:17;7.20;;;4.40;;
18338;SDS011;9295;44.484;11.240;2023-07-29T00:22:45;10.30;;;4.87;;
18338;SDS011;9295;44.484;11.240;2023-07-29T00:25:16;9.00;;;4.47;;
18338;SDS011;9295;44.484;11.240;2023-07-29T00:27:44;8.17;;;4.63;;
18338;SDS011;9295;44.484;11.240;2023-07-29T00:30:13;9.60;;;4.80;;
18338;SDS011;9295;44.484;11.240;2023-07-29T00:32:43;7.70;;;4.90;;
18338;SDS011;9295;44.484;11.240;2023-07-29T00:35:12;6.67;;;4.43;;
18338;SDS011;9295;44.484;11.240;2023-07-29T00:37:40;8.30;;;4.50;;
18338;SDS011;9295;44.484;11.240;2023-07-29T00:40:13;8.50;;;4.17;;
18338;SDS011;9295;44.484;11.240;2023-07-29T00:42:43;10.30;;;4.60;;
18338;SDS011;9295;44.484;11.240;2023-07-29T00:45:12;8.03;;;4.90;;
18338;SDS011;9295;44.484;11.240;2023-07-29T00:47:41;9.57;;;4.50;;
18338;SDS011;9295;44.484;11.240;2023-07-29T00:50:12;6.57;;;4.33;;
18338;SDS011;9295;44.484;11.240;2023-07-29T00:52:42;8.57;;;4.27;;
18338;SDS011;9295;44.484;11.240;2023-07-29T00:55:11;9.43;;;4.43;;
18338;SDS011;9295;44.484;11.240;2023-07-29T00:57:40;8.37;;;4.70;;
18338;SDS011;9295;44.484;11.240;2023-07-29T01:00:14;9.13;;;4.40;;
18338;SDS011;9295;44.484;11.240;2023-07-29T01:02:45;9.50;;;4.63;;
18338;SDS011;9295;44.484;11.240;2023-07-29T01:05:14;10.97;;;5.03;;
18338;SDS011;9295;44.484;11.240;2023-07-29T01:07:45;10.30;;;4.77;;
18338;SDS011;9295;44.484;11.240;2023-07-29T01:10:20;11.00;;;4.33;;
18338;SDS011;9295;44.484;11.240;2023-07-29T01:13:05;8.77;;;4.77;;
18338;SDS011;9295;44.484;11.240;2023-07-29T01:15:40;9.77;;;4.70;;
18338;SDS011;9295;44.484;11.240;2023-07-29T01:18:16;8.17;;;3.67;;
18338;SDS011;9295;44.484;11.240;2023-07-29T01:20:47;10.10;;;4.67;;
18338;SDS011;9295;44.484;11.240;2023-07-29T01:23:16;7.13;;;3.93;;
18338;SDS011;9295;44.484;11.240;2023-07-29T01:25:51;10.40;;;3.83;;
18338;SDS011;9295;44.484;11.240;2023-07-29T01:28:20;10.33;;;6.80;;
18338;SDS011;9295;44.484;11.240;2023-07-29T01:30:49;8.43;;;4.37;;
18338;SDS011;9295;44.484;11.240;2023-07-29T01:33:25;7.50;;;4.40;;
18338;SDS011;9295;44.484;11.240;2023-07-29T01:35:57;10.10;;;4.27;;
18338;SDS011;9295;44.484;11.240;2023-07-29T01:38:32;9.90;;;4.80;;
18338;SDS011;9295;44.484;11.240;2023-07-29T01:41:03;6.93;;;4.57;;
18338;SDS011;9295;44.484;11.240;2023-07-29T01:43:33;7.80;;;4.30;;
18338;SDS011;9295;44.484;11.240;2023-07-29T01:46:10;8.33;;;4.73;;
18338;SDS011;9295;44.484;11.240;2023-07-29T01:48:40;6.67;;;3.83;;
18338;SDS011;9295;44.484;11.240;2023-07-29T01:51:11;6.50;;;3.90;;
18338;SDS011;9295;44.484;11.240;2023-07-29T01:53:42;7.40;;;4.50;;
18338;SDS011;9295;44.484;11.240;2023-07-29T01:56:10;7.60;;;3.80;;
18338;SDS011;9295;44.484;11.240;2023-07-29T01:58:48;7.80;;;4.37;;
18338;SDS011;9295;44.484;11.240;2023-07-29T02:01:17;7.10;;;4.23;;
18338;SDS011;9295;44.484;11.240;2023-07-29T02:03:45;8.43;;;4.40;;
18338;SDS011;9295;44.484;11.240;2023-07-29T02:06:20;7.60;;;4.37;;
18338;SDS011;9295;44.484;11.240;2023-07-29T02:08:50;13.23;;;5.30;;
18338;SDS011;9295;44.484;11.240;2023-07-29T02:11:19;8.43;;;4.80;;
18338;SDS011;9295;44.484;11.240;2023-07-29T02:13:54;9.17;;;3.90;;
18338;SDS011;9295;44.484;11.240;2023-07-29T02:16:23;7.27;;;4.23;;
18338;SDS011;9295;44.484;11.240;2023-07-29T02:18:52;10.50;;;4.37;;
18338;SDS011;9295;44.484;11.240;2023-07-29T02:21:22;7.80;;;4.50;;
18338;SDS011;9295;44.484;11.240;2023-07-29T02:23:52;6.50;;;4.23;;
18338;SDS011;9295;44.484;11.240;2023-07-29T02:26:21;9.20;;;4.10;;
18338;SDS011;9295;44.484;11.240;2023-07-29T02:28:50;8.90;;;4.60;;
18338;SDS011;9295;44.484;11.240;2023-07-29T02:31:20;7.90;;;4.70;;
18338;SDS011;9295;44.484;11.240;2023-07-29T02:33:50;10.50;;;4.50;;
18338;SDS011;9295;44.484;11.240;2023-07-29T02:36:19;5.47;;;3.73;;
18338;SDS011;9295;44.484;11.240;2023-07-29T02:38:48;7.73;;;4.23;;
18338;SDS011;9295;44.484;11.240;2023-07-29T02:41:18;6.60;;;3.97;;
18338;SDS011;9295;44.484;11.240;2023-07-29T02:43:48;8.90;;;4.13;;
18338;SDS011;9295;44.484;11.240;2023-07-29T02:46:17;5.90;;;4.17;;
18338;SDS011;9295;44.484;11.240;2023-07-29T02:48:46;5.67;;;4.33;;
18338;SDS011;9295;44.484;11.240;2023-07-29T02:51:14;9.40;;;4.20;;
18338;SDS011;9295;44.484;11.240;2023-07-29T02:53:43;6.80;;;3.90;;
18338;SDS011;9295;44.484;11.240;2023-07-29T02:56:12;6.70;;;4.30;;
18338;SDS011;9295;44.484;11.240;2023-07-29T02:58:42;7.90;;;4.00;;
18338;SDS011;9295;44.484;11.240;2023-07-29T03:01:11;7.07;;;4.60;;
18338;SDS011;9295;44.484;11.240;2023-07-29T03:03:40;9.43;;;4.20;;
18338;SDS011;9295;44.484;11.240;2023-07-29T03:06:09;5.93;;;4.10;;
18338;SDS011;9295;44.484;11.240;2023-07-29T03:08:39;10.93;;;4.30;;
18338;SDS011;9295;44.484;11.240;2023-07-29T03:11:08;11.97;;;4.30;;
18338;SDS011;9295;44.484;11.240;2023-07-29T03:13:37;11.90;;;4.50;;
18338;SDS011;9295;44.484;11.240;2023-07-29T03:16:08;8.40;;;4.20;;
18338;SDS011;9295;44.484;11.240;2023-07-29T03:18:39;6.73;;;4.17;;
18338;SDS011;9295;44.484;11.240;2023-07-29T03:21:08;7.53;;;4.20;;
18338;SDS011;9295;44.484;11.240;2023-07-29T03:23:37;8.83;;;4.60;;
18338;SDS011;9295;44.484;11.240;2023-07-29T03:26:06;5.83;;;4.00;;
18338;SDS011;9295;44.484;11.240;2023-07-29T03:28:39;11.13;;;4.60;;
18338;SDS011;9295;44.484;11.240;2023-07-29T03:31:10;5.57;;;3.60;;
18338;SDS011;9295;44.484;11.240;2023-07-29T03:33:39;11.77;;;5.13;;
18338;SDS011;9295;44.484;11.240;2023-07-29T03:36:08;7.23;;;4.50;;
18338;SDS011;9295;44.484;11.240;2023-07-29T03:38:36;5.90;;;3.97;;
18338;SDS011;9295;44.484;11.240;2023-07-29T03:41:08;7.77;;;4.40;;
18338;SDS011;9295;44.484;11.240;2023-07-29T03:43:37;10.50;;;4.20;;
18338;SDS011;9295;44.484;11.240;2023-07-29T03:46:05;7.03;;;4.20;;
18338;SDS011;9295;44.484;11.240;2023-07-29T03:48:40;8.40;;;4.33;;
18338;SDS011;9295;44.484;11.240;2023-07-29T03:51:09;9.77;;;4.53;;
18338;SDS011;9295;44.484;11.240;2023-07-29T03:53:37;10.07;;;5.00;;
18338;SDS011;9295;44.484;11.240;2023-07-29T03:56:06;12.87;;;5.00;;
18338;SDS011;9295;44.484;11.240;2023-07-29T03:58:35;8.10;;;4.50;;
18338;SDS011;9295;44.484;11.240;2023-07-29T04:01:04;8.27;;;5.00;;
18338;SDS011;9295;44.484;11.240;2023-07-29T04:03:33;7.20;;;4.63;;
18338;SDS011;9295;44.484;11.240;2023-07-29T04:06:03;8.67;;;4.33;;
18338;SDS011;9295;44.484;11.240;2023-07-29T04:08:32;10.10;;;3.97;;
18338;SDS011;9295;44.484;11.240;2023-07-29T04:11:01;7.90;;;4.30;;
18338;SDS011;9295;44.484;11.240;2023-07-29T04:13:29;8.50;;;4.40;;
18338;SDS011;9295;44.484;11.240;2023-07-29T04:15:58;7.03;;;4.23;;
18338;SDS011;9295;44.484;11.240;2023-07-29T04:18:27;6.93;;;4.30;;
18338;SDS011;9295;44.484;11.240;2023-07-29T04:20:56;7.23;;;4.10;;
18338;SDS011;9295;44.484;11.240;2023-07-29T04:23:26;11.33;;;5.30;;
18338;SDS011;9295;44.484;11.240;2023-07-29T04:25:54;7.90;;;4.93;;
18338;SDS011;9295;44.484;11.240;2023-07-29T04:28:23;8.53;;;4.50;;
18338;SDS011;9295;44.484;11.240;2023-07-29T04:30:52;7.40;;;4.10;;
18338;SDS011;9295;44.484;11.240;2023-07-29T04:33:21;7.73;;;3.90;;
18338;SDS011;9295;44.484;11.240;2023-07-29T04:35:50;7.87;;;4.30;;
18338;SDS011;9295;44.484;11.240;2023-07-29T04:38:18;6.90;;;4.07;;
18338;SDS011;9295;44.484;11.240;2023-07-29T04:40:49;5.33;;;3.87;;
18338;SDS011;9295;44.484;11.240;2023-07-29T04:43:18;8.87;;;4.50;;
18338;SDS011;9295;44.484;11.240;2023-07-29T04:45:46;9.13;;;4.10;;
18338;SDS011;9295;44.484;11.240;2023-07-29T04:48:15;6.97;;;4.20;;
18338;SDS011;9295;44.484;11.240;2023-07-29T04:50:44;9.83;;;3.87;;
18338;SDS011;9295;44.484;11.240;2023-07-29T04:53:12;8.83;;;4.30;;
18338;SDS011;9295;44.484;11.240;2023-07-29T04:55:41;9.03;;;4.43;;
18338;SDS011;9295;44.484;11.240;2023-07-29T04:58:11;7.60;;;4.07;;
18338;SDS011;9295;44.484;11.240;2023-07-29T05:00:40;8.70;;;4.30;;
18338;SDS011;9295;44.484;11.240;2023-07-29T05:03:08;6.03;;;4.03;;
18338;SDS011;9295;44.484;11.240;2023-07-29T05:05:37;13.20;;;4.33;;
18338;SDS011;9295;44.484;11.240;2023-07-29T05:08:06;6.90;;;3.80;;
18338;SDS011;9295;44.484;11.240;2023-07-29T05:10:34;11.00;;;3.83;;
18338;SDS011;9295;44.484;11.240;2023-07-29T05:13:03;10.73;;;4.40;;
18338;SDS011;9295;44.484;11.240;2023-07-29T05:15:33;5.93;;;4.13;;
18338;SDS011;9295;44.484;11.240;2023-07-29T05:18:02;5.60;;;3.60;;
18338;SDS011;9295;44.484;11.240;2023-07-29T05:20:30;5.53;;;3.47;;
18338;SDS011;9295;44.484;11.240;2023-07-29T05:22:59;5.87;;;3.17;;
18338;SDS011;9295;44.484;11.240;2023-07-29T05:25:28;6.47;;;2.97;;
18338;SDS011;9295;44.484;11.240;2023-07-29T05:27:57;5.27;;;3.10;;
18338;SDS011;9295;44.484;11.240;2023-07-29T05:30:25;5.77;;;2.83;;
18338;SDS011;9295;44.484;11.240;2023-07-29T05:32:59;6.77;;;3.30;;
18338;SDS011;9295;44.484;11.240;2023-07-29T05:35:27;6.53;;;3.10;;
18338;SDS011;9295;44.484;11.240;2023-07-29T05:37:56;6.43;;;3.27;;
18338;SDS011;9295;44.484;11.240;2023-07-29T05:40:25;5.43;;;3.10;;
18338;SDS011;9295;44.484;11.240;2023-07-29T05:42:54;7.80;;;3.10;;
18338;SDS011;9295;44.484;11.240;2023-07-29T05:45:22;9.00;;;3.03;;
18338;SDS011;9295;44.484;11.240;2023-07-29T05:47:51;5.78;;;2.65;;
18338;SDS011;9295;44.484;11.240;2023-07-29T05:50:22;4.72;;;2.50;;
18338;SDS011;9295;44.484;11.240;2023-07-29T05:52:51;6.60;;;3.20;;
18338;SDS011;9295;44.484;11.240;2023-07-29T05:55:20;6.53;;;3.00;;
18338;SDS011;9295;44.484;11.240;2023-07-29T05:57:49;6.75;;;3.13;;
18338;SDS011;9295;44.484;11.240;2023-07-29T06:00:18;5.25;;;2.50;;
18338;SDS011;9295;44.484;11.240;2023-07-29T06:02:46;6.68;;;3.00;;
18338;SDS011;9295;44.484;11.240;2023-07-29T06:05:19;5.53;;;2.85;;
18338;SDS011;9295;44.484;11.240;2023-07-29T06:07:50;5.85;;;3.15;;
18338;SDS011;9295;44.484;11.240;2023-07-29T06:10:18;8.23;;;2.60;;
18338;SDS011;9295;44.484;11.240;2023-07-29T06:12:47;11.80;;;3.00;;
18338;SDS011;9295;44.484;11.240;2023-07-29T06:15:16;6.28;;;2.75;;
18338;SDS011;9295;44.484;11.240;2023-07-29T06:17:48;6.55;;;2.90;;
18338;SDS011;9295;44.484;11.240;2023-07-29T06:20:19;8.70;;;2.88;;
18338;SDS011;9295;44.484;11.240;2023-07-29T06:22:47;5.15;;;2.72;;
18338;SDS011;9295;44.484;11.240;2023-07-29T06:25:17;12.15;;;2.85;;
18338;SDS011;9295;44.484;11.240;2023-07-29T06:27:46;7.57;;;3.05;;
18338;SDS011;9295;44.484;11.240;2023-07-29T06:30:15;5.07;;;2.53;;
18338;SDS011;9295;44.484;11.240;2023-07-29T06:32:43;10.10;;;3.00;;
18338;SDS011;9295;44.484;11.240;2023-07-29T06:35:12;4.95;;;2.47;;
18338;SDS011;9295;44.484;11.240;2023-07-29T06:37:40;5.72;;;2.60;;
18338;SDS011;9295;44.484;11.240;2023-07-29T06:40:09;6.88;;;2.63;;
18338;SDS011;9295;44.484;11.240;2023-07-29T06:42:40;8.73;;;2.78;;
18338;SDS011;9295;44.484;11.240;2023-07-29T06:45:09;5.72;;;2.75;;
18338;SDS011;9295;44.484;11.240;2023-07-29T06:47:38;5.03;;;2.50;;
18338;SDS011;9295;44.484;11.240;2023-07-29T06:50:07;7.75;;;2.95;;
18338;SDS011;9295;44.484;11.240;2023-07-29T06:52:36;8.13;;;2.97;;
18338;SDS011;9295;44.484;11.240;2023-07-29T06:55:05;6.10;;;3.10;;
18338;SDS011;9295;44.484;11.240;2023-07-29T06:57:34;8.82;;;2.88;;
18338;SDS011;9295;44.484;11.240;2023-07-29T07:00:04;10.13;;;2.92;;
18338;SDS011;9295;44.484;11.240;2023-07-29T07:02:36;8.32;;;2.80;;
18338;SDS011;9295;44.484;11.240;2023-07-29T07:05:04;4.88;;;2.25;;
18338;SDS011;9295;44.484;11.240;2023-07-29T07:07:33;8.52;;;3.03;;
18338;SDS011;9295;44.484;11.240;2023-07-29T07:10:02;5.53;;;2.60;;
18338;SDS011;9295;44.484;11.240;2023-07-29T07:12:31;6.85;;;3.10;;
18338;SDS011;9295;44.484;11.240;2023-07-29T07:15:00;8.27;;;3.40;;
18338;SDS011;9295;44.484;11.240;2023-07-29T07:17:30;5.70;;;3.00;;
18338;SDS011;9295;44.484;11.240;2023-07-29T07:19:59;7.80;;;3.30;;
18338;SDS011;9295;44.484;11.240;2023-07-29T07:22:27;7.17;;;3.30;;
18338;SDS011;9295;44.484;11.240;2023-07-29T07:24:56;9.93;;;3.60;;
18338;SDS011;9295;44.484;11.240;2023-07-29T07:27:24;7.80;;;3.50;;
18338;SDS011;9295;44.484;11.240;2023-07-29T07:29:53;6.53;;;3.73;;
18338;SDS011;9295;44.484;11.240;2023-07-29T07:32:21;6.73;;;3.40;;
18338;SDS011;9295;44.484;11.240;2023-07-29T07:34:52;8.97;;;3.50;;
18338;SDS011;9295;44.484;11.240;2023-07-29T07:37:20;8.80;;;3.60;;
18338;SDS011;9295;44.484;11.240;2023-07-29T07:39:49;6.60;;;3.20;;
18338;SDS011;9295;44.484;11.240;2023-07-29T07:42:18;7.13;;;3.20;;
18338;SDS011;9295;44.484;11.240;2023-07-29T07:44:52;9.00;;;3.43;;
18338;SDS011;9295;44.484;11.240;2023-07-29T07:47:28;8.77;;;3.47;;
18338;SDS011;9295;44.484;11.240;2023-07-29T07:50:00;6.37;;;3.13;;
18338;SDS011;9295;44.484;11.240;2023-07-29T07:52:29;6.80;;;3.37;;
18338;SDS011;9295;44.484;11.240;2023-07-29T07:54:58;7.87;;;3.50;;
18338;SDS011;9295;44.484;11.240;2023-07-29T07:57:26;9.50;;;4.00;;
18338;SDS011;9295;44.484;11.240;2023-07-29T07:59:55;7.47;;;3.40;;
18338;SDS011;9295;44.484;11.240;2023-07-29T08:02:24;11.10;;;3.00;;
18338;SDS011;9295;44.484;11.240;2023-07-29T08:04:52;11.40;;;3.83;;
18338;SDS011;9295;44.484;11.240;2023-07-29T08:07:22;9.83;;;3.60;;
18338;SDS011;9295;44.484;11.240;2023-07-29T08:09:51;6.60;;;3.63;;
18338;SDS011;9295;44.484;11.240;2023-07-29T08:12:19;6.90;;;3.03;;
18338;SDS011;9295;44.484;11.240;2023-07-29T08:14:48;6.57;;;3.57;;
18338;SDS011;9295;44.484;11.240;2023-07-29T08:17:16;8.90;;;3.43;;
18338;SDS011;9295;44.484;11.240;2023-07-29T08:19:45;8.77;;;3.70;;
18338;SDS011;9295;44.484;11.240;2023-07-29T08:22:14;10.00;;;3.40;;
18338;SDS011;9295;44.484;11.240;2023-07-29T08:24:45;6.23;;;3.33;;
18338;SDS011;9295;44.484;11.240;2023-07-29T08:27:13;7.20;;;3.03;;
18338;SDS011;9295;44.484;11.240;2023-07-29T08:29:42;8.40;;;3.20;;
18338;SDS011;9295;44.484;11.240;2023-07-29T08:32:10;8.03;;;3.20;;
18338;SDS011;9295;44.484;11.240;2023-07-29T08:34:39;12.30;;;3.37;;
18338;SDS011;9295;44.484;11.240;2023-07-29T08:37:08;5.87;;;3.10;;
18338;SDS011;9295;44.484;11.240;2023-07-29T08:39:36;6.47;;;3.30;;
18338;SDS011;9295;44.484;11.240;2023-07-29T08:42:07;9.50;;;3.13;;
18338;SDS011;9295;44.484;11.240;2023-07-29T08:44:39;7.47;;;3.13;;
18338;SDS011;9295;44.484;11.240;2023-07-29T08:47:09;5.53;;;3.10;;
18338;SDS011;9295;44.484;11.240;2023-07-29T08:49:38;7.20;;;2.80;;
18338;SDS011;9295;44.484;11.240;2023-07-29T08:52:07;5.30;;;2.90;;
18338;SDS011;9295;44.484;11.240;2023-07-29T08:54:37;6.70;;;2.80;;
18338;SDS011;9295;44.484;11.240;2023-07-29T08:57:07;10.67;;;3.53;;
18338;SDS011;9295;44.484;11.240;2023-07-29T08:59:36;10.60;;;3.40;;
18338;SDS011;9295;44.484;11.240;2023-07-29T09:02:05;9.43;;;3.20;;
18338;SDS011;9295;44.484;11.240;2023-07-29T09:04:35;9.20;;;3.10;;
18338;SDS011;9295;44.484;11.240;2023-07-29T09:07:04;4.50;;;2.87;;
18338;SDS011;9295;44.484;11.240;2023-07-29T09:09:34;7.83;;;3.40;;
18338;SDS011;9295;44.484;11.240;2023-07-29T09:12:03;9.50;;;3.30;;
18338;SDS011;9295;44.484;11.240;2023-07-29T09:14:33;6.13;;;3.00;;
18338;SDS011;9295;44.484;11.240;2023-07-29T09:17:02;9.57;;;2.83;;
18338;SDS011;9295;44.484;11.240;2023-07-29T09:19:34;7.70;;;3.30;;
18338;SDS011;9295;44.484;11.240;2023-07-29T09:22:04;6.10;;;2.67;;
18338;SDS011;9295;44.484;11.240;2023-07-29T09:24:45;6.57;;;3.00;;
18338;SDS011;9295;44.484;11.240;2023-07-29T09:27:23;11.23;;;3.60;;
18338;SDS011;9295;44.484;11.240;2023-07-29T09:29:57;6.27;;;3.17;;
18338;SDS011;9295;44.484;11.240;2023-07-29T09:32:30;4.50;;;2.70;;
18338;SDS011;9295;44.484;11.240;2023-07-29T09:35:02;8.87;;;3.20;;
18338;SDS011;9295;44.484;11.240;2023-07-29T09:37:41;8.33;;;3.70;;
18338;SDS011;9295;44.484;11.240;2023-07-29T09:40:15;5.23;;;3.00;;
18338;SDS011;9295;44.484;11.240;2023-07-29T09:42:50;8.67;;;3.50;;
18338;SDS011;9295;44.484;11.240;2023-07-29T09:45:24;5.47;;;2.80;;
18338;SDS011;9295;44.484;11.240;2023-07-29T09:47:57;5.67;;;2.90;;
18338;SDS011;9295;44.484;11.240;2023-07-29T09:50:28;5.83;;;2.93;;
18338;SDS011;9295;44.484;11.240;2023-07-29T09:53:00;7.17;;;2.93;;
18338;SDS011;9295;44.484;11.240;2023-07-29T09:55:32;6.47;;;3.30;;
18338;SDS011;9295;44.484;11.240;2023-07-29T09:58:05;8.27;;;2.70;;
18338;SDS011;9295;44.484;11.240;2023-07-29T10:00:39;7.83;;;3.43;;
18338;SDS011;9295;44.484;11.240;2023-07-29T10:03:12;7.57;;;2.83;;
18338;SDS011;9295;44.484;11.240;2023-07-29T10:05:46;7.70;;;3.30;;
18338;SDS011;9295;44.484;11.240;2023-07-29T10:08:17;6.33;;;2.97;;
18338;SDS011;9295;44.484;11.240;2023-07-29T10:10:46;5.53;;;2.87;;
18338;SDS011;9295;44.484;11.240;2023-07-29T10:13:17;7.13;;;2.97;;
18338;SDS011;9295;44.484;11.240;2023-07-29T10:15:47;5.80;;;2.90;;
18338;SDS011;9295;44.484;11.240;2023-07-29T10:18:17;7.70;;;3.17;;
18338;SDS011;9295;44.484;11.240;2023-07-29T10:20:47;10.60;;;3.27;;
18338;SDS011;9295;44.484;11.240;2023-07-29T10:23:18;7.33;;;3.10;;
18338;SDS011;9295;44.484;11.240;2023-07-29T10:25:49;8.73;;;3.10;;
18338;SDS011;9295;44.484;11.240;2023-07-29T10:28:22;7.33;;;2.97;;
18338;SDS011;9295;44.484;11.240;2023-07-29T10:30:55;6.80;;;2.60;;
18338;SDS011;9295;44.484;11.240;2023-07-29T10:33:24;7.63;;;3.13;;
18338;SDS011;9295;44.484;11.240;2023-07-29T10:35:53;5.70;;;2.87;;
18338;SDS011;9295;44.484;11.240;2023-07-29T10:38:23;7.20;;;2.80;;
18338;SDS011;9295;44.484;11.240;2023-07-29T10:40:53;4.97;;;3.10;;
18338;SDS011;9295;44.484;11.240;2023-07-29T10:43:24;9.00;;;2.60;;
18338;SDS011;9295;44.484;11.240;2023-07-29T10:45:55;6.13;;;2.50;;
18338;SDS011;9295;44.484;11.240;2023-07-29T10:48:42;8.90;;;3.17;;
18338;SDS011;9295;44.484;11.240;2023-07-29T10:51:22;7.47;;;2.70;;
18338;SDS011;9295;44.484;11.240;2023-07-29T10:53:58;7.80;;;2.93;;
18338;SDS011;9295;44.484;11.240;2023-07-29T10:56:30;4.60;;;2.87;;
18338;SDS011;9295;44.484;11.240;2023-07-29T11:02:11;6.93;;;3.10;;
18338;SDS011;9295;44.484;11.240;2023-07-29T11:04:46;9.53;;;4.00;;
18338;SDS011;9295;44.484;11.240;2023-07-29T11:07:23;4.70;;;2.90;;
18338;SDS011;9295;44.484;11.240;2023-07-29T11:10:00;6.10;;;2.90;;
18338;SDS011;9295;44.484;11.240;2023-07-29T11:12:33;6.60;;;3.20;;
18338;SDS011;9295;44.484;11.240;2023-07-29T11:15:12;5.40;;;2.93;;
18338;SDS011;9295;44.484;11.240;2023-07-29T11:17:50;6.37;;;2.80;;
18338;SDS011;9295;44.484;11.240;2023-07-29T11:20:21;4.40;;;3.20;;
18338;SDS011;9295;44.484;11.240;2023-07-29T11:22:51;5.83;;;3.10;;
18338;SDS011;9295;44.484;11.240;2023-07-29T11:25:21;9.83;;;3.30;;
18338;SDS011;9295;44.484;11.240;2023-07-29T11:27:50;5.70;;;3.00;;
18338;SDS011;9295;44.484;11.240;2023-07-29T11:30:20;4.53;;;2.50;;
18338;SDS011;9295;44.484;11.240;2023-07-29T11:32:51;6.17;;;2.90;;
18338;SDS011;9295;44.484;11.240;2023-07-29T11:35:22;8.50;;;3.10;;
18338;SDS011;9295;44.484;11.240;2023-07-29T11:37:51;5.90;;;2.90;;
18338;SDS011;9295;44.484;11.240;2023-07-29T11:40:24;6.33;;;2.70;;
18338;SDS011;9295;44.484;11.240;2023-07-29T11:42:52;4.87;;;2.50;;
18338;SDS011;9295;44.484;11.240;2023-07-29T11:45:22;6.07;;;2.70;;
18338;SDS011;9295;44.484;11.240;2023-07-29T11:48:09;7.53;;;2.93;;
18338;SDS011;9295;44.484;11.240;2023-07-29T11:50:39;6.97;;;2.93;;
18338;SDS011;9295;44.484;11.240;2023-07-29T11:53:08;4.10;;;2.63;;
18338;SDS011;9295;44.484;11.240;2023-07-29T11:55:37;5.37;;;3.10;;
18338;SDS011;9295;44.484;11.240;2023-07-29T11:58:06;8.60;;;3.17;;
18338;SDS011;9295;44.484;11.240;2023-07-29T12:00:35;7.17;;;3.33;;
18338;SDS011;9295;44.484;11.240;2023-07-29T12:03:06;6.50;;;3.23;;
18338;SDS011;9295;44.484;11.240;2023-07-29T12:05:39;7.03;;;2.53;;
18338;SDS011;9295;44.484;11.240;2023-07-29T12:08:08;5.63;;;2.80;;
18338;SDS011;9295;44.484;11.240;2023-07-29T12:10:37;6.80;;;2.70;;
18338;SDS011;9295;44.484;11.240;2023-07-29T12:13:07;6.00;;;3.00;;
18338;SDS011;9295;44.484;11.240;2023-07-29T12:15:37;5.87;;;2.70;;
18338;SDS011;9295;44.484;11.240;2023-07-29T12:18:07;7.47;;;3.60;;
18338;SDS011;9295;44.484;11.240;2023-07-29T12:20:36;5.70;;;2.30;;
18338;SDS011;9295;44.484;11.240;2023-07-29T12:23:06;7.23;;;2.93;;
18338;SDS011;9295;44.484;11.240;2023-07-29T12:25:35;8.37;;;3.30;;
18338;SDS011;9295;44.484;11.240;2023-07-29T12:28:05;6.13;;;2.93;;
18338;SDS011;9295;44.484;11.240;2023-07-29T12:30:40;6.30;;;3.23;;
18338;SDS011;9295;44.484;11.240;2023-07-29T12:33:09;9.80;;;3.60;;
18338;SDS011;9295;44.484;11.240;2023-07-29T12:35:40;6.10;;;3.20;;
18338;SDS011;9295;44.484;11.240;2023-07-29T12:38:08;6.47;;;2.90;;
18338;SDS011;9295;44.484;11.240;2023-07-29T12:40:37;6.00;;;2.93;;
18338;SDS011;9295;44.484;11.240;2023-07-29T12:43:08;6.50;;;3.07;;
18338;SDS011;9295;44.484;11.240;2023-07-29T12:45:37;10.50;;;2.93;;
18338;SDS011;9295;44.484;11.240;2023-07-29T12:48:09;6.87;;;2.70;;
18338;SDS011;9295;44.484;11.240;2023-07-29T12:50:39;7.20;;;2.90;;
18338;SDS011;9295;44.484;11.240;2023-07-29T12:53:08;4.63;;;3.03;;
18338;SDS011;9295;44.484;11.240;2023-07-29T12:55:38;6.37;;;2.73;;
18338;SDS011;9295;44.484;11.240;2023-07-29T12:58:06;6.77;;;2.83;;
18338;SDS011;9295;44.484;11.240;2023-07-29T13:00:35;8.20;;;2.90;;
18338;SDS011;9295;44.484;11.240;2023-07-29T13:03:04;4.83;;;2.80;;
18338;SDS011;9295;44.484;11.240;2023-07-29T13:05:33;8.77;;;3.37;;
18338;SDS011;9295;44.484;11.240;2023-07-29T13:08:03;6.00;;;2.80;;
18338;SDS011;9295;44.484;11.240;2023-07-29T13:10:32;9.13;;;3.43;;
18338;SDS011;9295;44.484;11.240;2023-07-29T13:13:01;6.80;;;2.80;;
18338;SDS011;9295;44.484;11.240;2023-07-29T13:15:29;5.40;;;2.50;;
18338;SDS011;9295;44.484;11.240;2023-07-29T13:17:58;8.53;;;3.50;;
18338;SDS011;9295;44.484;11.240;2023-07-29T13:20:27;6.70;;;2.97;;
18338;SDS011;9295;44.484;11.240;2023-07-29T13:22:56;4.53;;;2.60;;
18338;SDS011;9295;44.484;11.240;2023-07-29T13:25:26;5.33;;;2.73;;
18338;SDS011;9295;44.484;11.240;2023-07-29T13:27:54;6.43;;;3.00;;
18338;SDS011;9295;44.484;11.240;2023-07-29T13:30:23;5.40;;;3.20;;
18338;SDS011;9295;44.484;11.240;2023-07-29T13:32:52;4.43;;;2.90;;
18338;SDS011;9295;44.484;11.240;2023-07-29T13:35:20;10.20;;;2.80;;
18338;SDS011;9295;44.484;11.240;2023-07-29T13:37:49;5.50;;;3.10;;
18338;SDS011;9295;44.484;11.240;2023-07-29T13:40:18;6.70;;;3.37;;
18338;SDS011;9295;44.484;11.240;2023-07-29T13:42:48;5.70;;;3.27;;
18338;SDS011;9295;44.484;11.240;2023-07-29T13:45:17;7.30;;;3.20;;
18338;SDS011;9295;44.484;11.240;2023-07-29T13:47:45;6.23;;;3.20;;
18338;SDS011;9295;44.484;11.240;2023-07-29T13:50:14;6.87;;;3.00;;
18338;SDS011;9295;44.484;11.240;2023-07-29T13:52:42;5.73;;;3.13;;
18338;SDS011;9295;44.484;11.240;2023-07-29T13:55:11;6.20;;;3.43;;
18338;SDS011;9295;44.484;11.240;2023-07-29T13:57:40;5.57;;;3.00;;
18338;SDS011;9295;44.484;11.240;2023-07-29T14:00:10;8.47;;;3.60;;
18338;SDS011;9295;44.484;11.240;2023-07-29T14:02:40;8.20;;;3.67;;
18338;SDS011;9295;44.484;11.240;2023-07-29T14:05:09;6.87;;;3.60;;
18338;SDS011;9295;44.484;11.240;2023-07-29T14:07:39;8.70;;;3.50;;
18338;SDS011;9295;44.484;11.240;2023-07-29T14:10:07;8.30;;;3.40;;
18338;SDS011;9295;44.484;11.240;2023-07-29T14:12:36;6.87;;;3.70;;
18338;SDS011;9295;44.484;11.240;2023-07-29T14:15:05;8.27;;;3.60;;
18338;SDS011;9295;44.484;11.240;2023-07-29T14:17:36;4.97;;;3.10;;
18338;SDS011;9295;44.484;11.240;2023-07-29T14:20:06;8.10;;;3.53;;
18338;SDS011;9295;44.484;11.240;2023-07-29T14:22:35;6.73;;;3.30;;
18338;SDS011;9295;44.484;11.240;2023-07-29T14:25:05;6.70;;;3.40;;
18338;SDS011;9295;44.484;11.240;2023-07-29T14:27:35;10.07;;;3.20;;
18338;SDS011;9295;44.484;11.240;2023-07-29T14:30:04;10.40;;;3.50;;
18338;SDS011;9295;44.484;11.240;2023-07-29T14:32:33;5.53;;;3.23;;
18338;SDS011;9295;44.484;11.240;2023-07-29T14:35:06;6.13;;;3.30;;
18338;SDS011;9295;44.484;11.240;2023-07-29T14:37:35;7.00;;;3.60;;
18338;SDS011;9295;44.484;11.240;2023-07-29T14:40:04;5.80;;;3.20;;
18338;SDS011;9295;44.484;11.240;2023-07-29T14:42:34;5.10;;;3.20;;
18338;SDS011;9295;44.484;11.240;2023-07-29T14:45:03;5.67;;;3.50;;
18338;SDS011;9295;44.484;11.240;2023-07-29T14:47:32;5.57;;;3.20;;
18338;SDS011;9295;44.484;11.240;2023-07-29T14:50:02;6.40;;;3.30;;
18338;SDS011;9295;44.484;11.240;2023-07-29T14:52:32;11.60;;;3.97;;
18338;SDS011;9295;44.484;11.240;2023-07-29T14:55:00;7.87;;;3.37;;
18338;SDS011;9295;44.484;11.240;2023-07-29T14:57:29;10.43;;;4.27;;
18338;SDS011;9295;44.484;11.240;2023-07-29T14:59:58;12.20;;;3.77;;
18338;SDS011;9295;44.484;11.240;2023-07-29T15:02:26;5.73;;;3.30;;
18338;SDS011;9295;44.484;11.240;2023-07-29T15:04:55;5.20;;;3.13;;